sensor_id;sensor_type;location;lat;lon;timestamp;P1;durP1;ratioP1;P2;durP2;ratioP2
2620;SDS011;1320;48.128;11.592;2023-06-10T00:01:47;10.10;;;7.60;;
2620;SDS011;1320;48.128;11.592;2023-06-10T00:04:13;8.60;;;7.37;;
2620;SDS011;1320;48.128;11.592;2023-06-10T00:06:40;7.53;;;6.37;;
2620;SDS011;1320;48.128;11.592;2023-06-10T00:09:06;7.40;;;6.70;;
2620;SDS011;1320;48.128;11.592;2023-06-10T00:11:35;7.27;;;6.23;;
2620;SDS011;1320;48.128;11.592;2023-06-10T00:14:01;8.00;;;7.07;;
2620;SDS011;1320;48.128;11.592;2023-06-10T00:16:27;7.23;;;6.53;;
2620;SDS011;1320;48.128;11.592;2023-06-10T00:18:53;9.10;;;6.80;;
2620;SDS011;1320;48.128;11.592;2023-06-10T00:21:29;6.87;;;6.17;;
2620;SDS011;1320;48.128;11.592;2023-06-10T00:24:05;12.03;;;7.10;;
2620;SDS011;1320;48.128;11.592;2023-06-10T00:26:36;6.67;;;5.83;;
2620;SDS011;1320;48.128;11.592;2023-06-10T00:29:06;6.10;;;5.50;;
2620;SDS011;1320;48.128;11.592;2023-06-10T00:31:33;7.10;;;6.20;;
2620;SDS011;1320;48.128;11.592;2023-06-10T00:33:59;7.27;;;5.97;;
2620;SDS011;1320;48.128;11.592;2023-06-10T00:36:25;7.77;;;6.27;;
2620;SDS011;1320;48.128;11.592;2023-06-10T00:38:51;8.90;;;6.20;;
2620;SDS011;1320;48.128;11.592;2023-06-10T00:41:17;8.40;;;6.27;;
2620;SDS011;1320;48.128;11.592;2023-06-10T00:43:43;7.07;;;6.23;;
2620;SDS011;1320;48.128;11.592;2023-06-10T00:46:09;7.37;;;6.60;;
2620;SDS011;1320;48.128;11.592;2023-06-10T00:48:36;8.97;;;6.87;;
2620;SDS011;1320;48.128;11.592;2023-06-10T00:51:03;8.93;;;6.13;;
2620;SDS011;1320;48.128;11.592;2023-06-10T00:53:30;7.20;;;6.27;;
2620;SDS011;1320;48.128;11.592;2023-06-10T00:55:57;7.30;;;6.23;;
2620;SDS011;1320;48.128;11.592;2023-06-10T00:58:24;6.87;;;5.70;;
2620;SDS011;1320;48.128;11.592;2023-06-10T01:00:50;7.97;;;6.70;;
2620;SDS011;1320;48.128;11.592;2023-06-10T01:03:16;7.60;;;6.77;;
2620;SDS011;1320;48.128;11.592;2023-06-10T01:05:43;7.00;;;6.30;;
2620;SDS011;1320;48.128;11.592;2023-06-10T01:08:19;8.13;;;6.60;;
2620;SDS011;1320;48.128;11.592;2023-06-10T01:10:57;8.47;;;7.03;;
2620;SDS011;1320;48.128;11.592;2023-06-10T01:13:25;7.60;;;6.80;;
2620;SDS011;1320;48.128;11.592;2023-06-10T01:15:56;7.80;;;6.47;;
2620;SDS011;1320;48.128;11.592;2023-06-10T01:18:23;7.27;;;6.47;;
2620;SDS011;1320;48.128;11.592;2023-06-10T01:20:55;8.53;;;7.63;;
2620;SDS011;1320;48.128;11.592;2023-06-10T01:23:21;8.40;;;7.50;;
2620;SDS011;1320;48.128;11.592;2023-06-10T01:25:53;9.17;;;7.43;;
2620;SDS011;1320;48.128;11.592;2023-06-10T01:31:28;9.23;;;7.97;;
2620;SDS011;1320;48.128;11.592;2023-06-10T01:33:59;7.90;;;6.20;;
2620;SDS011;1320;48.128;11.592;2023-06-10T01:36:27;7.97;;;7.17;;
2620;SDS011;1320;48.128;11.592;2023-06-10T01:38:54;8.73;;;7.47;;
2620;SDS011;1320;48.128;11.592;2023-06-10T01:41:21;7.97;;;7.17;;
2620;SDS011;1320;48.128;11.592;2023-06-10T01:43:48;8.53;;;7.57;;
2620;SDS011;1320;48.128;11.592;2023-06-10T01:46:14;10.87;;;8.33;;
2620;SDS011;1320;48.128;11.592;2023-06-10T01:48:43;8.90;;;8.00;;
2620;SDS011;1320;48.128;11.592;2023-06-10T01:51:09;8.93;;;7.43;;
2620;SDS011;1320;48.128;11.592;2023-06-10T01:53:35;8.53;;;7.30;;
2620;SDS011;1320;48.128;11.592;2023-06-10T01:56:01;8.47;;;7.67;;
2620;SDS011;1320;48.128;11.592;2023-06-10T01:58:26;7.80;;;6.73;;
2620;SDS011;1320;48.128;11.592;2023-06-10T02:00:52;8.77;;;7.63;;
2620;SDS011;1320;48.128;11.592;2023-06-10T02:03:17;8.77;;;6.90;;
2620;SDS011;1320;48.128;11.592;2023-06-10T02:05:43;9.83;;;7.93;;
2620;SDS011;1320;48.128;11.592;2023-06-10T02:08:09;9.67;;;7.70;;
2620;SDS011;1320;48.128;11.592;2023-06-10T02:10:34;10.23;;;8.33;;
2620;SDS011;1320;48.128;11.592;2023-06-10T02:13:00;9.03;;;7.07;;
2620;SDS011;1320;48.128;11.592;2023-06-10T02:15:26;8.90;;;7.23;;
2620;SDS011;1320;48.128;11.592;2023-06-10T02:17:52;7.73;;;6.93;;
2620;SDS011;1320;48.128;11.592;2023-06-10T02:20:17;8.30;;;7.33;;
2620;SDS011;1320;48.128;11.592;2023-06-10T02:22:44;10.00;;;8.70;;
2620;SDS011;1320;48.128;11.592;2023-06-10T02:25:09;9.93;;;8.93;;
2620;SDS011;1320;48.128;11.592;2023-06-10T02:27:35;9.27;;;8.33;;
2620;SDS011;1320;48.128;11.592;2023-06-10T02:30:01;12.00;;;8.87;;
2620;SDS011;1320;48.128;11.592;2023-06-10T02:32:26;8.47;;;7.20;;
2620;SDS011;1320;48.128;11.592;2023-06-10T02:34:53;10.20;;;8.33;;
2620;SDS011;1320;48.128;11.592;2023-06-10T02:37:19;9.50;;;8.53;;
2620;SDS011;1320;48.128;11.592;2023-06-10T02:39:48;9.60;;;8.60;;
2620;SDS011;1320;48.128;11.592;2023-06-10T02:42:14;10.53;;;9.43;;
2620;SDS011;1320;48.128;11.592;2023-06-10T02:44:39;9.30;;;8.27;;
2620;SDS011;1320;48.128;11.592;2023-06-10T02:47:05;13.20;;;9.30;;
2620;SDS011;1320;48.128;11.592;2023-06-10T02:49:31;9.13;;;7.83;;
2620;SDS011;1320;48.128;11.592;2023-06-10T02:51:56;10.53;;;9.43;;
2620;SDS011;1320;48.128;11.592;2023-06-10T02:54:25;9.60;;;8.30;;
2620;SDS011;1320;48.128;11.592;2023-06-10T02:56:51;10.00;;;9.00;;
2620;SDS011;1320;48.128;11.592;2023-06-10T02:59:17;11.40;;;9.23;;
2620;SDS011;1320;48.128;11.592;2023-06-10T03:01:43;11.73;;;10.53;;
2620;SDS011;1320;48.128;11.592;2023-06-10T03:04:09;9.70;;;8.40;;
2620;SDS011;1320;48.128;11.592;2023-06-10T03:06:38;10.53;;;9.03;;
2620;SDS011;1320;48.128;11.592;2023-06-10T03:09:06;9.23;;;8.23;;
2620;SDS011;1320;48.128;11.592;2023-06-10T03:11:35;10.70;;;8.60;;
2620;SDS011;1320;48.128;11.592;2023-06-10T03:14:01;10.30;;;8.90;;
2620;SDS011;1320;48.128;11.592;2023-06-10T03:16:26;10.10;;;8.47;;
2620;SDS011;1320;48.128;11.592;2023-06-10T03:18:52;10.47;;;9.30;;
2620;SDS011;1320;48.128;11.592;2023-06-10T03:21:18;10.50;;;9.37;;
2620;SDS011;1320;48.128;11.592;2023-06-10T03:23:44;11.23;;;9.93;;
2620;SDS011;1320;48.128;11.592;2023-06-10T03:26:10;10.97;;;9.87;;
2620;SDS011;1320;48.128;11.592;2023-06-10T03:28:41;9.77;;;8.77;;
2620;SDS011;1320;48.128;11.592;2023-06-10T03:31:06;10.60;;;9.13;;
2620;SDS011;1320;48.128;11.592;2023-06-10T03:33:32;10.37;;;9.27;;
2620;SDS011;1320;48.128;11.592;2023-06-10T03:35:58;10.50;;;9.40;;
2620;SDS011;1320;48.128;11.592;2023-06-10T03:38:26;11.10;;;9.53;;
2620;SDS011;1320;48.128;11.592;2023-06-10T03:40:52;10.77;;;9.00;;
2620;SDS011;1320;48.128;11.592;2023-06-10T03:43:18;10.60;;;9.30;;
2620;SDS011;1320;48.128;11.592;2023-06-10T03:45:43;11.37;;;8.63;;
2620;SDS011;1320;48.128;11.592;2023-06-10T03:48:10;10.17;;;8.90;;
2620;SDS011;1320;48.128;11.592;2023-06-10T03:50:36;11.40;;;8.97;;
2620;SDS011;1320;48.128;11.592;2023-06-10T03:53:02;10.77;;;8.80;;
2620;SDS011;1320;48.128;11.592;2023-06-10T03:55:27;11.23;;;8.83;;
2620;SDS011;1320;48.128;11.592;2023-06-10T03:57:53;10.93;;;9.83;;
2620;SDS011;1320;48.128;11.592;2023-06-10T04:00:19;12.00;;;9.30;;
2620;SDS011;1320;48.128;11.592;2023-06-10T04:02:46;9.80;;;8.67;;
2620;SDS011;1320;48.128;11.592;2023-06-10T04:05:17;11.23;;;9.07;;
2620;SDS011;1320;48.128;11.592;2023-06-10T04:07:46;12.57;;;10.10;;
2620;SDS011;1320;48.128;11.592;2023-06-10T04:10:13;10.87;;;9.63;;
2620;SDS011;1320;48.128;11.592;2023-06-10T04:12:39;10.00;;;8.53;;
2620;SDS011;1320;48.128;11.592;2023-06-10T04:15:05;10.63;;;9.53;;
2620;SDS011;1320;48.128;11.592;2023-06-10T04:17:32;12.80;;;10.37;;
2620;SDS011;1320;48.128;11.592;2023-06-10T04:19:57;11.10;;;9.07;;
2620;SDS011;1320;48.128;11.592;2023-06-10T04:22:24;13.00;;;9.90;;
2620;SDS011;1320;48.128;11.592;2023-06-10T04:24:50;13.60;;;10.40;;
2620;SDS011;1320;48.128;11.592;2023-06-10T04:27:15;11.70;;;10.07;;
2620;SDS011;1320;48.128;11.592;2023-06-10T04:29:41;11.90;;;10.13;;
2620;SDS011;1320;48.128;11.592;2023-06-10T04:32:07;12.73;;;11.00;;
2620;SDS011;1320;48.128;11.592;2023-06-10T04:34:33;13.30;;;11.00;;
2620;SDS011;1320;48.128;11.592;2023-06-10T04:36:59;12.33;;;10.30;;
2620;SDS011;1320;48.128;11.592;2023-06-10T04:39:25;12.20;;;9.70;;
2620;SDS011;1320;48.128;11.592;2023-06-10T04:41:51;12.30;;;10.40;;
2620;SDS011;1320;48.128;11.592;2023-06-10T04:44:19;13.63;;;12.17;;
2620;SDS011;1320;48.128;11.592;2023-06-10T04:46:46;12.63;;;10.47;;
2620;SDS011;1320;48.128;11.592;2023-06-10T04:49:12;12.77;;;10.83;;
2620;SDS011;1320;48.128;11.592;2023-06-10T04:51:41;12.07;;;10.37;;
2620;SDS011;1320;48.128;11.592;2023-06-10T04:54:07;13.80;;;10.73;;
2620;SDS011;1320;48.128;11.592;2023-06-10T04:56:32;11.70;;;10.40;;
2620;SDS011;1320;48.128;11.592;2023-06-10T04:58:58;12.63;;;11.30;;
2620;SDS011;1320;48.128;11.592;2023-06-10T05:01:25;13.07;;;9.93;;
2620;SDS011;1320;48.128;11.592;2023-06-10T05:03:51;14.60;;;10.20;;
2620;SDS011;1320;48.128;11.592;2023-06-10T05:06:17;11.60;;;10.40;;
2620;SDS011;1320;48.128;11.592;2023-06-10T05:08:42;12.70;;;10.97;;
2620;SDS011;1320;48.128;11.592;2023-06-10T05:11:08;12.70;;;10.57;;
2620;SDS011;1320;48.128;11.592;2023-06-10T05:13:34;11.80;;;10.07;;
2620;SDS011;1320;48.128;11.592;2023-06-10T05:16:00;13.30;;;11.13;;
2620;SDS011;1320;48.128;11.592;2023-06-10T05:18:25;13.03;;;10.77;;
2620;SDS011;1320;48.128;11.592;2023-06-10T05:20:51;12.87;;;11.10;;
2620;SDS011;1320;48.128;11.592;2023-06-10T05:23:18;16.33;;;11.13;;
2620;SDS011;1320;48.128;11.592;2023-06-10T05:25:44;15.50;;;12.17;;
2620;SDS011;1320;48.128;11.592;2023-06-10T05:28:10;18.20;;;13.43;;
2620;SDS011;1320;48.128;11.592;2023-06-10T05:30:36;13.53;;;11.93;;
2620;SDS011;1320;48.128;11.592;2023-06-10T05:33:02;14.30;;;11.80;;
2620;SDS011;1320;48.128;11.592;2023-06-10T05:35:29;12.90;;;11.50;;
2620;SDS011;1320;48.128;11.592;2023-06-10T05:37:54;13.30;;;11.03;;
2620;SDS011;1320;48.128;11.592;2023-06-10T05:40:20;12.97;;;11.27;;
2620;SDS011;1320;48.128;11.592;2023-06-10T05:42:46;13.37;;;11.70;;
2620;SDS011;1320;48.128;11.592;2023-06-10T05:45:11;13.57;;;10.77;;
2620;SDS011;1320;48.128;11.592;2023-06-10T05:47:37;15.00;;;11.10;;
2620;SDS011;1320;48.128;11.592;2023-06-10T05:50:03;13.77;;;11.57;;
2620;SDS011;1320;48.128;11.592;2023-06-10T05:52:32;13.47;;;10.20;;
2620;SDS011;1320;48.128;11.592;2023-06-10T05:54:59;16.47;;;12.00;;
2620;SDS011;1320;48.128;11.592;2023-06-10T05:57:25;12.90;;;11.23;;
2620;SDS011;1320;48.128;11.592;2023-06-10T05:59:51;16.30;;;12.20;;
2620;SDS011;1320;48.128;11.592;2023-06-10T06:02:19;12.93;;;11.27;;
2620;SDS011;1320;48.128;11.592;2023-06-10T06:04:45;13.27;;;10.53;;
2620;SDS011;1320;48.128;11.592;2023-06-10T06:07:10;12.27;;;10.97;;
2620;SDS011;1320;48.128;11.592;2023-06-10T06:09:36;11.97;;;10.23;;
2620;SDS011;1320;48.128;11.592;2023-06-10T06:12:02;11.70;;;10.50;;
2620;SDS011;1320;48.128;11.592;2023-06-10T06:14:31;14.50;;;12.60;;
2620;SDS011;1320;48.128;11.592;2023-06-10T06:16:57;11.80;;;9.43;;
2620;SDS011;1320;48.128;11.592;2023-06-10T06:19:23;10.97;;;9.47;;
2620;SDS011;1320;48.128;11.592;2023-06-10T06:21:50;11.80;;;10.43;;
2620;SDS011;1320;48.128;11.592;2023-06-10T06:24:15;13.33;;;10.83;;
2620;SDS011;1320;48.128;11.592;2023-06-10T06:26:41;12.00;;;10.43;;
2620;SDS011;1320;48.128;11.592;2023-06-10T06:29:07;10.53;;;9.30;;
2620;SDS011;1320;48.128;11.592;2023-06-10T06:31:33;12.53;;;10.10;;
2620;SDS011;1320;48.128;11.592;2023-06-10T06:33:58;12.40;;;10.07;;
2620;SDS011;1320;48.128;11.592;2023-06-10T06:36:24;11.80;;;9.50;;
2620;SDS011;1320;48.128;11.592;2023-06-10T06:38:50;11.17;;;8.70;;
2620;SDS011;1320;48.128;11.592;2023-06-10T06:41:16;12.07;;;9.50;;
2620;SDS011;1320;48.128;11.592;2023-06-10T06:43:41;10.43;;;9.00;;
2620;SDS011;1320;48.128;11.592;2023-06-10T06:46:08;11.40;;;9.00;;
2620;SDS011;1320;48.128;11.592;2023-06-10T06:48:33;11.70;;;9.07;;
2620;SDS011;1320;48.128;11.592;2023-06-10T06:50:59;10.07;;;9.03;;
2620;SDS011;1320;48.128;11.592;2023-06-10T06:53:25;10.67;;;9.03;;
2620;SDS011;1320;48.128;11.592;2023-06-10T06:55:50;9.90;;;8.13;;
2620;SDS011;1320;48.128;11.592;2023-06-10T06:58:16;10.30;;;8.60;;
2620;SDS011;1320;48.128;11.592;2023-06-10T07:00:42;10.43;;;9.33;;
2620;SDS011;1320;48.128;11.592;2023-06-10T07:03:07;11.40;;;9.60;;
2620;SDS011;1320;48.128;11.592;2023-06-10T07:05:33;17.63;;;7.67;;
2620;SDS011;1320;48.128;11.592;2023-06-10T07:07:58;10.30;;;9.03;;
2620;SDS011;1320;48.128;11.592;2023-06-10T07:10:24;8.77;;;7.67;;
2620;SDS011;1320;48.128;11.592;2023-06-10T07:12:51;9.63;;;8.30;;
2620;SDS011;1320;48.128;11.592;2023-06-10T07:15:17;10.00;;;8.93;;
2620;SDS011;1320;48.128;11.592;2023-06-10T07:17:43;9.30;;;7.77;;
2620;SDS011;1320;48.128;11.592;2023-06-10T07:20:08;9.10;;;7.97;;
2620;SDS011;1320;48.128;11.592;2023-06-10T07:22:35;13.20;;;8.80;;
2620;SDS011;1320;48.128;11.592;2023-06-10T07:25:00;9.97;;;8.80;;
2620;SDS011;1320;48.128;11.592;2023-06-10T07:27:26;8.60;;;7.30;;
2620;SDS011;1320;48.128;11.592;2023-06-10T07:29:52;9.73;;;8.40;;
2620;SDS011;1320;48.128;11.592;2023-06-10T07:32:18;9.57;;;8.53;;
2620;SDS011;1320;48.128;11.592;2023-06-10T07:34:47;10.27;;;8.33;;
2620;SDS011;1320;48.128;11.592;2023-06-10T07:37:12;11.47;;;10.27;;
2620;SDS011;1320;48.128;11.592;2023-06-10T07:39:39;9.00;;;7.77;;
2620;SDS011;1320;48.128;11.592;2023-06-10T07:42:05;8.90;;;7.60;;
2620;SDS011;1320;48.128;11.592;2023-06-10T07:44:31;9.50;;;7.40;;
2620;SDS011;1320;48.128;11.592;2023-06-10T07:46:56;8.17;;;7.10;;
2620;SDS011;1320;48.128;11.592;2023-06-10T07:49:23;7.60;;;6.80;;
2620;SDS011;1320;48.128;11.592;2023-06-10T07:51:49;9.53;;;7.20;;
2620;SDS011;1320;48.128;11.592;2023-06-10T07:54:15;8.60;;;6.97;;
2620;SDS011;1320;48.128;11.592;2023-06-10T07:56:41;10.00;;;7.67;;
2620;SDS011;1320;48.128;11.592;2023-06-10T07:59:06;7.20;;;6.50;;
2620;SDS011;1320;48.128;11.592;2023-06-10T08:01:32;8.93;;;7.50;;
2620;SDS011;1320;48.128;11.592;2023-06-10T08:03:58;8.80;;;7.50;;
2620;SDS011;1320;48.128;11.592;2023-06-10T08:06:23;7.90;;;6.67;;
2620;SDS011;1320;48.128;11.592;2023-06-10T08:08:49;9.30;;;8.00;;
2620;SDS011;1320;48.128;11.592;2023-06-10T08:11:15;8.70;;;6.10;;
2620;SDS011;1320;48.128;11.592;2023-06-10T08:13:41;8.83;;;7.90;;
2620;SDS011;1320;48.128;11.592;2023-06-10T08:16:06;8.60;;;6.47;;
2620;SDS011;1320;48.128;11.592;2023-06-10T08:18:32;9.70;;;8.00;;
2620;SDS011;1320;48.128;11.592;2023-06-10T08:20:58;9.83;;;8.17;;
2620;SDS011;1320;48.128;11.592;2023-06-10T08:23:24;8.80;;;7.57;;
2620;SDS011;1320;48.128;11.592;2023-06-10T08:25:50;9.30;;;7.83;;
2620;SDS011;1320;48.128;11.592;2023-06-10T08:28:16;8.50;;;7.40;;
2620;SDS011;1320;48.128;11.592;2023-06-10T08:30:42;8.40;;;7.10;;
2620;SDS011;1320;48.128;11.592;2023-06-10T08:33:07;7.23;;;6.53;;
2620;SDS011;1320;48.128;11.592;2023-06-10T08:35:33;8.93;;;7.27;;
2620;SDS011;1320;48.128;11.592;2023-06-10T08:37:59;7.33;;;6.00;;
2620;SDS011;1320;48.128;11.592;2023-06-10T08:40:25;7.00;;;6.40;;
2620;SDS011;1320;48.128;11.592;2023-06-10T08:45:22;6.53;;;5.93;;
2620;SDS011;1320;48.128;11.592;2023-06-10T08:47:49;6.60;;;5.90;;
2620;SDS011;1320;48.128;11.592;2023-06-10T08:50:18;6.77;;;6.10;;
2620;SDS011;1320;48.128;11.592;2023-06-10T08:52:44;6.80;;;6.10;;
2620;SDS011;1320;48.128;11.592;2023-06-10T08:55:16;8.10;;;7.30;;
2620;SDS011;1320;48.128;11.592;2023-06-10T08:57:50;8.47;;;6.17;;
2620;SDS011;1320;48.128;11.592;2023-06-10T09:00:17;9.03;;;6.90;;
2620;SDS011;1320;48.128;11.592;2023-06-10T09:02:44;8.63;;;7.20;;
2620;SDS011;1320;48.128;11.592;2023-06-10T09:05:10;6.87;;;6.17;;
2620;SDS011;1320;48.128;11.592;2023-06-10T09:07:35;8.30;;;6.27;;
2620;SDS011;1320;48.128;11.592;2023-06-10T09:10:02;7.67;;;6.20;;
2620;SDS011;1320;48.128;11.592;2023-06-10T09:12:31;6.73;;;6.07;;
2620;SDS011;1320;48.128;11.592;2023-06-10T09:14:59;11.80;;;6.50;;
2620;SDS011;1320;48.128;11.592;2023-06-10T09:17:25;7.07;;;5.47;;
2620;SDS011;1320;48.128;11.592;2023-06-10T09:19:52;7.13;;;6.43;;
2620;SDS011;1320;48.128;11.592;2023-06-10T09:22:20;6.37;;;5.77;;
2620;SDS011;1320;48.128;11.592;2023-06-10T09:24:47;5.77;;;5.20;;
2620;SDS011;1320;48.128;11.592;2023-06-10T09:27:12;8.20;;;6.40;;
2620;SDS011;1320;48.128;11.592;2023-06-10T09:32:17;5.70;;;5.20;;
2620;SDS011;1320;48.128;11.592;2023-06-10T09:34:43;7.90;;;5.40;;
2620;SDS011;1320;48.128;11.592;2023-06-10T09:37:09;9.70;;;5.60;;
2620;SDS011;1320;48.128;11.592;2023-06-10T09:39:37;6.43;;;5.77;;
2620;SDS011;1320;48.128;11.592;2023-06-10T09:42:24;6.50;;;5.40;;
2620;SDS011;1320;48.128;11.592;2023-06-10T09:44:52;5.90;;;4.87;;
2620;SDS011;1320;48.128;11.592;2023-06-10T09:47:21;5.60;;;4.97;;
2620;SDS011;1320;48.128;11.592;2023-06-10T09:49:48;5.70;;;5.00;;
2620;SDS011;1320;48.128;11.592;2023-06-10T09:52:14;5.63;;;5.07;;
2620;SDS011;1320;48.128;11.592;2023-06-10T09:54:47;6.03;;;5.43;;
2620;SDS011;1320;48.128;11.592;2023-06-10T09:57:12;5.53;;;5.03;;
2620;SDS011;1320;48.128;11.592;2023-06-10T09:59:39;5.37;;;4.87;;
2620;SDS011;1320;48.128;11.592;2023-06-10T10:02:05;5.20;;;4.17;;
2620;SDS011;1320;48.128;11.592;2023-06-10T10:04:31;4.90;;;4.40;;
2620;SDS011;1320;48.128;11.592;2023-06-10T10:07:00;6.17;;;4.43;;
2620;SDS011;1320;48.128;11.592;2023-06-10T10:09:27;5.20;;;4.63;;
2620;SDS011;1320;48.128;11.592;2023-06-10T10:11:52;4.20;;;3.80;;
2620;SDS011;1320;48.128;11.592;2023-06-10T10:14:20;5.47;;;4.80;;
2620;SDS011;1320;48.128;11.592;2023-06-10T10:16:47;6.87;;;5.63;;
2620;SDS011;1320;48.128;11.592;2023-06-10T10:19:23;5.97;;;4.60;;
2620;SDS011;1320;48.128;11.592;2023-06-10T10:21:55;5.03;;;4.33;;
2620;SDS011;1320;48.128;11.592;2023-06-10T10:24:30;5.87;;;5.10;;
2620;SDS011;1320;48.128;11.592;2023-06-10T10:27:01;4.67;;;4.10;;
2620;SDS011;1320;48.128;11.592;2023-06-10T10:29:31;5.47;;;4.47;;
2620;SDS011;1320;48.128;11.592;2023-06-10T10:32:04;6.53;;;5.83;;
2620;SDS011;1320;48.128;11.592;2023-06-10T10:34:36;4.87;;;4.33;;
2620;SDS011;1320;48.128;11.592;2023-06-10T10:37:14;6.30;;;4.53;;
2620;SDS011;1320;48.128;11.592;2023-06-10T10:39:40;4.93;;;4.53;;
2620;SDS011;1320;48.128;11.592;2023-06-10T10:42:07;5.57;;;4.83;;
2620;SDS011;1320;48.128;11.592;2023-06-10T10:44:36;6.10;;;5.40;;
2620;SDS011;1320;48.128;11.592;2023-06-10T10:47:03;5.47;;;4.70;;
2620;SDS011;1320;48.128;11.592;2023-06-10T10:49:32;6.83;;;4.50;;
2620;SDS011;1320;48.128;11.592;2023-06-10T10:52:01;6.03;;;5.10;;
2620;SDS011;1320;48.128;11.592;2023-06-10T11:04:46;6.13;;;3.90;;
2620;SDS011;1320;48.128;11.592;2023-06-10T11:07:13;5.03;;;4.47;;
2620;SDS011;1320;48.128;11.592;2023-06-10T11:10:13;5.40;;;4.40;;
2620;SDS011;1320;48.128;11.592;2023-06-10T11:15:17;5.47;;;4.30;;
2620;SDS011;1320;48.128;11.592;2023-06-10T11:20:44;3.83;;;2.97;;
2620;SDS011;1320;48.128;11.592;2023-06-10T11:31:33;4.60;;;3.60;;
2620;SDS011;1320;48.128;11.592;2023-06-10T11:34:05;4.37;;;3.97;;
2620;SDS011;1320;48.128;11.592;2023-06-10T11:36:32;5.13;;;3.20;;
2620;SDS011;1320;48.128;11.592;2023-06-10T11:39:03;4.33;;;3.93;;
2620;SDS011;1320;48.128;11.592;2023-06-10T11:41:30;4.60;;;3.80;;
2620;SDS011;1320;48.128;11.592;2023-06-10T11:43:59;4.50;;;3.90;;
2620;SDS011;1320;48.128;11.592;2023-06-10T11:46:27;4.97;;;4.30;;
2620;SDS011;1320;48.128;11.592;2023-06-10T11:48:56;4.23;;;3.50;;
2620;SDS011;1320;48.128;11.592;2023-06-10T11:51:27;4.80;;;3.83;;
2620;SDS011;1320;48.128;11.592;2023-06-10T11:54:00;4.50;;;3.53;;
2620;SDS011;1320;48.128;11.592;2023-06-10T11:56:27;3.70;;;3.00;;
2620;SDS011;1320;48.128;11.592;2023-06-10T11:58:55;3.60;;;3.23;;
2620;SDS011;1320;48.128;11.592;2023-06-10T12:01:22;5.40;;;3.70;;
2620;SDS011;1320;48.128;11.592;2023-06-10T12:06:25;4.73;;;4.23;;
2620;SDS011;1320;48.128;11.592;2023-06-10T12:08:50;3.70;;;3.37;;
2620;SDS011;1320;48.128;11.592;2023-06-10T12:11:16;4.90;;;3.50;;
2620;SDS011;1320;48.128;11.592;2023-06-10T12:13:46;6.80;;;3.90;;
2620;SDS011;1320;48.128;11.592;2023-06-10T12:16:16;3.70;;;3.13;;
2620;SDS011;1320;48.128;11.592;2023-06-10T12:18:45;3.40;;;3.00;;
2620;SDS011;1320;48.128;11.592;2023-06-10T12:21:30;4.03;;;2.93;;
2620;SDS011;1320;48.128;11.592;2023-06-10T12:26:39;3.47;;;2.80;;
2620;SDS011;1320;48.128;11.592;2023-06-10T12:31:53;3.73;;;2.43;;
2620;SDS011;1320;48.128;11.592;2023-06-10T12:34:39;3.63;;;3.10;;
2620;SDS011;1320;48.128;11.592;2023-06-10T12:37:06;3.00;;;2.50;;
2620;SDS011;1320;48.128;11.592;2023-06-10T12:39:38;3.37;;;2.90;;
2620;SDS011;1320;48.128;11.592;2023-06-10T12:42:04;3.17;;;2.80;;
2620;SDS011;1320;48.128;11.592;2023-06-10T12:44:34;5.23;;;4.60;;
2620;SDS011;1320;48.128;11.592;2023-06-10T12:47:07;3.30;;;3.00;;
2620;SDS011;1320;48.128;11.592;2023-06-10T12:49:34;4.07;;;2.97;;
2620;SDS011;1320;48.128;11.592;2023-06-10T12:52:01;6.70;;;2.70;;
2620;SDS011;1320;48.128;11.592;2023-06-10T12:54:26;3.20;;;2.40;;
2620;SDS011;1320;48.128;11.592;2023-06-10T12:56:52;3.10;;;2.50;;
2620;SDS011;1320;48.128;11.592;2023-06-10T12:59:18;4.40;;;3.37;;
2620;SDS011;1320;48.128;11.592;2023-06-10T13:01:44;5.00;;;4.50;;
2620;SDS011;1320;48.128;11.592;2023-06-10T13:04:15;5.77;;;5.03;;
2620;SDS011;1320;48.128;11.592;2023-06-10T13:06:41;5.37;;;4.70;;
2620;SDS011;1320;48.128;11.592;2023-06-10T13:09:07;5.70;;;4.90;;
2620;SDS011;1320;48.128;11.592;2023-06-10T13:11:33;7.43;;;4.53;;
2620;SDS011;1320;48.128;11.592;2023-06-10T13:14:00;4.63;;;4.23;;
2620;SDS011;1320;48.128;11.592;2023-06-10T13:16:27;9.37;;;4.40;;
2620;SDS011;1320;48.128;11.592;2023-06-10T13:18:53;5.73;;;4.90;;
2620;SDS011;1320;48.128;11.592;2023-06-10T13:21:19;5.00;;;4.30;;
2620;SDS011;1320;48.128;11.592;2023-06-10T13:23:46;5.30;;;4.80;;
2620;SDS011;1320;48.128;11.592;2023-06-10T13:26:13;6.27;;;4.17;;
2620;SDS011;1320;48.128;11.592;2023-06-10T13:28:39;5.10;;;4.17;;
2620;SDS011;1320;48.128;11.592;2023-06-10T13:31:05;4.87;;;3.70;;
2620;SDS011;1320;48.128;11.592;2023-06-10T13:33:32;4.80;;;4.03;;
2620;SDS011;1320;48.128;11.592;2023-06-10T13:35:58;5.03;;;4.50;;
2620;SDS011;1320;48.128;11.592;2023-06-10T13:38:23;4.50;;;4.10;;
2620;SDS011;1320;48.128;11.592;2023-06-10T13:40:49;6.03;;;4.93;;
2620;SDS011;1320;48.128;11.592;2023-06-10T13:43:16;5.23;;;4.30;;
2620;SDS011;1320;48.128;11.592;2023-06-10T13:45:41;6.33;;;3.93;;
2620;SDS011;1320;48.128;11.592;2023-06-10T13:48:07;4.10;;;3.67;;
2620;SDS011;1320;48.128;11.592;2023-06-10T13:50:33;4.07;;;3.67;;
2620;SDS011;1320;48.128;11.592;2023-06-10T13:52:59;4.93;;;4.03;;
2620;SDS011;1320;48.128;11.592;2023-06-10T13:55:24;4.03;;;3.43;;
2620;SDS011;1320;48.128;11.592;2023-06-10T13:57:50;6.60;;;3.53;;
2620;SDS011;1320;48.128;11.592;2023-06-10T14:00:16;5.20;;;3.33;;
2620;SDS011;1320;48.128;11.592;2023-06-10T14:02:42;4.23;;;3.83;;
2620;SDS011;1320;48.128;11.592;2023-06-10T14:05:08;4.50;;;3.83;;
2620;SDS011;1320;48.128;11.592;2023-06-10T14:07:34;4.03;;;3.60;;
2620;SDS011;1320;48.128;11.592;2023-06-10T14:10:00;3.87;;;3.27;;
2620;SDS011;1320;48.128;11.592;2023-06-10T14:12:25;3.50;;;3.20;;
2620;SDS011;1320;48.128;11.592;2023-06-10T14:14:51;4.13;;;3.17;;
2620;SDS011;1320;48.128;11.592;2023-06-10T14:17:17;3.53;;;2.93;;
2620;SDS011;1320;48.128;11.592;2023-06-10T14:19:42;4.70;;;3.73;;
2620;SDS011;1320;48.128;11.592;2023-06-10T14:22:08;4.30;;;3.60;;
2620;SDS011;1320;48.128;11.592;2023-06-10T14:24:34;3.80;;;3.40;;
2620;SDS011;1320;48.128;11.592;2023-06-10T14:27:01;4.30;;;3.67;;
2620;SDS011;1320;48.128;11.592;2023-06-10T14:29:27;4.07;;;3.67;;
2620;SDS011;1320;48.128;11.592;2023-06-10T14:31:54;3.83;;;3.10;;
2620;SDS011;1320;48.128;11.592;2023-06-10T14:34:20;4.00;;;3.57;;
2620;SDS011;1320;48.128;11.592;2023-06-10T14:36:48;4.40;;;3.23;;
2620;SDS011;1320;48.128;11.592;2023-06-10T14:39:14;4.10;;;3.10;;
2620;SDS011;1320;48.128;11.592;2023-06-10T14:41:39;5.30;;;3.50;;
2620;SDS011;1320;48.128;11.592;2023-06-10T14:44:05;4.20;;;2.70;;
2620;SDS011;1320;48.128;11.592;2023-06-10T14:46:31;3.40;;;3.10;;
2620;SDS011;1320;48.128;11.592;2023-06-10T14:48:56;4.07;;;3.67;;
2620;SDS011;1320;48.128;11.592;2023-06-10T14:51:24;4.40;;;3.43;;
2620;SDS011;1320;48.128;11.592;2023-06-10T14:53:50;6.33;;;3.20;;
2620;SDS011;1320;48.128;11.592;2023-06-10T14:56:15;3.97;;;3.57;;
2620;SDS011;1320;48.128;11.592;2023-06-10T14:58:41;3.83;;;3.53;;
2620;SDS011;1320;48.128;11.592;2023-06-10T15:01:07;4.07;;;3.30;;
2620;SDS011;1320;48.128;11.592;2023-06-10T15:03:32;3.37;;;2.90;;
2620;SDS011;1320;48.128;11.592;2023-06-10T15:05:58;4.00;;;3.20;;
2620;SDS011;1320;48.128;11.592;2023-06-10T15:08:25;4.57;;;3.40;;
2620;SDS011;1320;48.128;11.592;2023-06-10T15:10:52;5.50;;;3.97;;
2620;SDS011;1320;48.128;11.592;2023-06-10T15:13:19;5.43;;;4.00;;
2620;SDS011;1320;48.128;11.592;2023-06-10T15:15:45;4.40;;;3.70;;
2620;SDS011;1320;48.128;11.592;2023-06-10T15:18:10;5.20;;;4.17;;
2620;SDS011;1320;48.128;11.592;2023-06-10T15:20:36;5.90;;;3.80;;
2620;SDS011;1320;48.128;11.592;2023-06-10T15:23:02;4.77;;;4.27;;
2620;SDS011;1320;48.128;11.592;2023-06-10T15:25:28;5.10;;;4.60;;
2620;SDS011;1320;48.128;11.592;2023-06-10T15:27:53;4.70;;;4.20;;
2620;SDS011;1320;48.128;11.592;2023-06-10T15:30:19;5.13;;;4.63;;
2620;SDS011;1320;48.128;11.592;2023-06-10T15:32:45;4.67;;;4.27;;
2620;SDS011;1320;48.128;11.592;2023-06-10T15:35:11;4.67;;;3.77;;